Time;durP1;ratioP1;P1;durP2;ratioP2;P2;SDS_P1;SDS_P2;PMS_P1;PMS_P2;Temp;Humidity;BMP_temperature;BMP_pressure;BME280_temperature;BME280_humidity;BME280_pressure;Samples;Min_cycle;Max_cycle;Signal;HPM_P1;HPM_P2
2021/03/19 00:00:50;;;;;;;1.40;0.85;;;23.60;42.50;;;;;;5072021;28;20449;-37
2021/03/19 00:03:17;;;;;;;1.13;1.02;;;23.60;42.50;;;;;;5070933;28;20059;-38
2021/03/19 00:05:44;;;;;;;0.95;0.80;;;23.60;42.50;;;;;;5072005;28;20459;-38
2021/03/19 00:08:11;;;;;;;1.02;0.93;;;23.60;42.50;;;;;;5070455;28;20044;-38
2021/03/19 00:10:37;;;;;;;1.00;0.90;;;23.60;42.60;;;;;;5072693;28;20060;-38
2021/03/19 00:13:11;;;;;;;1.35;1.05;;;23.60;42.50;;;;;;5070391;28;20052;-38
2021/03/19 00:15:38;;;;;;;1.05;0.95;;;23.60;42.60;;;;;;5070246;28;20055;-38
2021/03/19 00:18:06;;;;;;;1.45;0.90;;;23.60;42.50;;;;;;5071587;28;20119;-37
2021/03/19 00:20:37;;;;;;;0.98;0.88;;;23.60;42.60;;;;;;5071257;28;20076;-37
2021/03/19 00:23:05;;;;;;;0.80;0.70;;;23.60;42.50;;;;;;5070682;28;20044;-38
2021/03/19 00:25:32;;;;;;;1.05;0.93;;;23.60;42.50;;;;;;5072347;28;20052;-38
2021/03/19 00:28:00;;;;;;;1.08;0.70;;;23.60;42.60;;;;;;5069621;28;20057;-38
2021/03/19 00:30:28;;;;;;;1.23;0.88;;;23.60;42.50;;;;;;5070388;28;20116;-38
2021/03/19 00:32:55;;;;;;;1.10;0.80;;;23.60;42.50;;;;;;5071898;28;20067;-38
2021/03/19 00:35:23;;;;;;;1.08;0.70;;;23.60;42.50;;;;;;5073629;28;20447;-38
2021/03/19 00:37:50;;;;;;;0.80;0.77;;;23.50;42.50;;;;;;5075457;28;20056;-38
2021/03/19 00:40:17;;;;;;;1.02;0.82;;;23.50;42.50;;;;;;5075311;28;20557;-38
2021/03/19 00:42:44;;;;;;;1.08;0.98;;;23.50;42.40;;;;;;5074450;28;20510;-37
2021/03/19 00:45:14;;;;;;;1.00;0.80;;;23.60;42.60;;;;;;5075013;28;20519;-38
2021/03/19 00:47:52;;;;;;;1.20;0.80;;;23.50;42.40;;;;;;5073605;28;20123;-38
2021/03/19 00:50:28;;;;;;;1.40;1.00;;;23.60;42.50;;;;;;5076272;28;20128;-38
2021/03/19 00:52:56;;;;;;;1.00;0.85;;;23.60;42.60;;;;;;5073775;28;20040;-38
2021/03/19 00:55:23;;;;;;;1.20;0.90;;;23.50;42.50;;;;;;5073748;28;20071;-37
2021/03/19 00:57:50;;;;;;;0.98;0.88;;;23.50;42.40;;;;;;5073828;28;20048;-38
2021/03/19 01:00:19;;;;;;;1.25;1.02;;;23.50;42.50;;;;;;5073747;28;20044;-39
2021/03/19 01:02:47;;;;;;;0.93;0.82;;;23.50;42.50;;;;;;5075378;28;20489;-38
2021/03/19 01:05:23;;;;;;;0.93;0.75;;;23.50;42.50;;;;;;5074070;28;20511;-38
2021/03/19 01:07:50;;;;;;;1.00;0.82;;;23.50;42.50;;;;;;5074286;28;20048;-38
2021/03/19 01:10:25;;;;;;;0.70;0.70;;;23.50;42.40;;;;;;5074919;28;20056;-38
2021/03/19 01:12:52;;;;;;;1.27;0.95;;;23.50;42.50;;;;;;5074473;28;20040;-38
2021/03/19 01:15:19;;;;;;;1.73;1.02;;;23.50;42.50;;;;;;5074397;28;20041;-38
2021/03/19 01:17:47;;;;;;;1.35;1.05;;;23.50;42.50;;;;;;5073339;28;20057;-38
2021/03/19 01:20:15;;;;;;;0.93;0.70;;;23.50;42.50;;;;;;5074248;28;20458;-38
2021/03/19 01:22:43;;;;;;;1.27;0.93;;;23.50;42.50;;;;;;5073547;28;20044;-38
2021/03/19 01:25:15;;;;;;;1.50;1.00;;;23.50;42.50;;;;;;5072937;28;20048;-38
2021/03/19 01:27:43;;;;;;;1.60;1.20;;;23.50;42.50;;;;;;5072932;28;20508;-38
2021/03/19 01:30:22;;;;;;;1.10;0.90;;;23.50;42.50;;;;;;5074367;28;20045;-38
2021/03/19 01:32:48;;;;;;;1.00;0.90;;;23.50;42.50;;;;;;5075048;28;20044;-38
2021/03/19 01:35:18;;;;;;;0.82;0.80;;;23.50;42.50;;;;;;5075089;28;20044;-38
2021/03/19 01:37:45;;;;;;;1.05;0.95;;;23.50;42.50;;;;;;5073816;28;20052;-38
2021/03/19 01:40:14;;;;;;;1.35;0.90;;;23.50;42.50;;;;;;5072420;28;20056;-39
2021/03/19 01:42:44;;;;;;;1.33;1.00;;;23.50;42.50;;;;;;5073102;28;20124;-38
2021/03/19 01:45:29;;;;;;;0.95;0.80;;;23.50;42.50;;;;;;5074542;28;20053;-39
2021/03/19 01:48:33;;;;;;;1.13;1.02;;;23.50;42.50;;;;;;5073930;28;20500;-39
2021/03/19 01:51:37;;;;;;;1.00;0.90;;;23.50;42.50;;;;;;5073275;28;20120;-39
2021/03/19 01:54:41;;;;;;;1.50;1.02;;;23.50;42.50;;;;;;5073363;28;20044;-38
2021/03/19 01:57:45;;;;;;;1.10;0.80;;;23.50;42.50;;;;;;5058025;28;20140;-38
2021/03/19 02:00:49;;;;;;;1.10;1.00;;;23.50;42.50;;;;;;5072386;28;20048;-38
2021/03/19 02:03:53;;;;;;;1.27;1.08;;;23.50;42.50;;;;;;5072848;28;20071;-37
2021/03/19 02:06:57;;;;;;;1.20;0.87;;;23.50;42.50;;;;;;5073559;28;20051;-38
2021/03/19 02:10:01;;;;;;;1.33;1.03;;;23.50;42.50;;;;;;5072283;28;20366;-39
2021/03/19 02:13:19;;;;;;;1.15;1.00;;;23.40;42.40;;;;;;5071961;28;20433;-38
2021/03/19 02:16:23;;;;;;;1.35;1.00;;;23.50;42.60;;;;;;5052512;28;20036;-38
2021/03/19 02:19:27;;;;;;;0.90;0.80;;;23.40;42.50;;;;;;5068333;28;20045;-38
2021/03/19 02:22:33;;;;;;;1.02;0.90;;;23.40;42.40;;;;;;5059122;28;20059;-38
2021/03/19 02:25:37;;;;;;;1.45;1.10;;;23.40;42.40;;;;;;5062093;28;20072;-38
2021/03/19 02:28:40;;;;;;;1.10;1.00;;;23.40;42.50;;;;;;5054286;28;20053;-38
2021/03/19 02:31:54;;;;;;;1.08;0.80;;;23.40;42.50;;;;;;5061177;28;20048;-38
2021/03/19 02:34:32;;;;;;;1.13;0.80;;;23.40;42.50;;;;;;5053885;28;20053;-37
2021/03/19 02:36:59;;;;;;;1.25;1.10;;;23.40;42.50;;;;;;5052267;28;20496;-37
2021/03/19 02:39:26;;;;;;;1.08;0.80;;;23.40;42.50;;;;;;5067644;28;20052;-38
2021/03/19 02:41:53;;;;;;;1.08;0.88;;;23.40;42.50;;;;;;5070048;28;20523;-38
2021/03/19 02:44:20;;;;;;;1.23;0.90;;;23.40;42.50;;;;;;5068446;28;20056;-37
2021/03/19 02:46:46;;;;;;;1.20;0.80;;;23.40;42.40;;;;;;5069244;28;20072;-38
2021/03/19 02:49:13;;;;;;;1.33;1.10;;;23.40;42.50;;;;;;5068328;28;20051;-38
2021/03/19 02:51:40;;;;;;;0.70;0.70;;;23.40;42.40;;;;;;5073202;28;20457;-38
2021/03/19 02:54:07;;;;;;;1.10;0.70;;;23.40;42.40;;;;;;5071861;28;20411;-39
2021/03/19 02:56:33;;;;;;;0.90;0.80;;;23.40;42.40;;;;;;5072359;28;20055;-38
2021/03/19 02:59:00;;;;;;;0.80;0.73;;;23.40;42.40;;;;;;5070351;28;20041;-38
2021/03/19 03:01:27;;;;;;;1.00;0.80;;;23.40;42.40;;;;;;5071892;28;20052;-38
2021/03/19 03:03:54;;;;;;;0.77;0.77;;;23.40;42.40;;;;;;5072260;28;20048;-38
2021/03/19 03:06:21;;;;;;;1.23;0.90;;;23.40;42.40;;;;;;5071149;28;20052;-38
2021/03/19 03:08:48;;;;;;;1.60;0.80;;;23.40;42.40;;;;;;5071056;28;20056;-38
2021/03/19 03:11:14;;;;;;;1.50;0.98;;;23.40;42.40;;;;;;5072238;28;20436;-38
2021/03/19 03:13:41;;;;;;;0.90;0.80;;;23.40;42.40;;;;;;5072530;28;20048;-38
2021/03/19 03:16:08;;;;;;;0.90;0.80;;;23.40;42.40;;;;;;5072765;28;20048;-38
2021/03/19 03:18:34;;;;;;;1.08;0.82;;;23.40;42.40;;;;;;5071992;28;20048;-38
2021/03/19 03:21:01;;;;;;;0.98;0.70;;;23.40;42.40;;;;;;5070842;28;20062;-38
2021/03/19 03:23:29;;;;;;;1.02;0.93;;;23.40;42.40;;;;;;5072165;28;20045;-37
2021/03/19 03:25:56;;;;;;;0.63;0.63;;;23.40;42.40;;;;;;5071154;28;20441;-38
2021/03/19 03:28:24;;;;;;;0.82;0.73;;;23.40;42.40;;;;;;5072151;28;20056;-38
2021/03/19 03:30:55;;;;;;;0.88;0.80;;;23.40;42.40;;;;;;5070865;28;20040;-38
2021/03/19 03:33:23;;;;;;;0.93;0.80;;;23.40;42.40;;;;;;5071825;28;20090;-38
2021/03/19 03:35:50;;;;;;;0.90;0.80;;;23.40;42.40;;;;;;5069850;28;20049;-38
2021/03/19 03:38:23;;;;;;;0.98;0.88;;;23.40;42.40;;;;;;5071791;28;20055;-38
2021/03/19 03:40:54;;;;;;;1.35;1.02;;;23.30;42.30;;;;;;5072017;28;20487;-38
2021/03/19 03:43:21;;;;;;;0.90;0.70;;;23.40;42.40;;;;;;5070673;28;20044;-38
2021/03/19 03:45:48;;;;;;;1.05;0.80;;;23.30;42.30;;;;;;5071794;28;20044;-38
2021/03/19 03:48:18;;;;;;;1.25;0.90;;;23.40;42.40;;;;;;5070653;28;20040;-38
2021/03/19 03:50:45;;;;;;;1.17;0.77;;;23.30;42.30;;;;;;5071875;28;20036;-37
2021/03/19 03:53:13;;;;;;;1.55;1.05;;;23.30;42.30;;;;;;5071595;28;20484;-38
2021/03/19 03:55:41;;;;;;;1.13;0.80;;;23.30;42.30;;;;;;5070665;28;20660;-38
2021/03/19 03:58:11;;;;;;;0.88;0.80;;;23.30;42.30;;;;;;5071728;28;20549;-37
2021/03/19 04:00:41;;;;;;;1.50;1.05;;;23.40;42.40;;;;;;5071795;28;20097;-37
2021/03/19 04:03:09;;;;;;;0.70;0.70;;;23.30;42.30;;;;;;5070771;28;20415;-38
2021/03/19 04:05:48;;;;;;;0.80;0.80;;;23.40;42.40;;;;;;5070262;28;20048;-38
2021/03/19 04:08:24;;;;;;;1.40;1.30;;;23.30;42.30;;;;;;5069685;28;20098;-38
2021/03/19 04:10:53;;;;;;;0.90;0.88;;;23.40;42.40;;;;;;5071961;28;20048;-37
2021/03/19 04:13:22;;;;;;;1.15;0.93;;;23.40;42.40;;;;;;5070259;28;20454;-39
2021/03/19 04:15:50;;;;;;;1.15;0.70;;;23.40;42.40;;;;;;5069964;28;20055;-37
2021/03/19 04:18:19;;;;;;;1.00;0.80;;;23.30;42.30;;;;;;5072994;28;20135;-38
2021/03/19 04:20:50;;;;;;;1.00;0.90;;;23.40;42.40;;;;;;5071419;28;20070;-38
2021/03/19 04:23:29;;;;;;;0.90;0.70;;;23.30;42.30;;;;;;5070337;28;20048;-38
2021/03/19 04:25:56;;;;;;;1.52;0.93;;;23.40;42.40;;;;;;5072916;28;20056;-37
2021/03/19 04:28:34;;;;;;;1.33;1.08;;;23.30;42.30;;;;;;5072593;28;20047;-38
2021/03/19 04:31:01;;;;;;;1.10;0.90;;;23.30;42.30;;;;;;5068982;28;20432;-38
2021/03/19 04:33:30;;;;;;;1.00;0.80;;;23.30;42.30;;;;;;5069294;28;20055;-38
2021/03/19 04:36:37;;;;;;;0.93;0.75;;;23.30;42.30;;;;;;5071453;28;20053;-39
2021/03/19 04:39:06;;;;;;;1.42;0.80;;;23.30;42.30;;;;;;5054653;28;20053;-39
2021/03/19 04:41:33;;;;;;;0.82;0.70;;;23.30;42.30;;;;;;5071420;28;20037;-39
2021/03/19 04:44:01;;;;;;;0.98;0.77;;;23.30;42.30;;;;;;5071374;28;20044;-38
2021/03/19 04:46:28;;;;;;;1.00;0.90;;;23.30;42.30;;;;;;5070099;28;20044;-38
2021/03/19 04:48:55;;;;;;;1.00;0.88;;;23.30;42.30;;;;;;5070253;28;20099;-38
2021/03/19 04:51:21;;;;;;;0.93;0.80;;;23.30;42.30;;;;;;5071347;28;20045;-39
2021/03/19 04:53:52;;;;;;;0.88;0.70;;;23.30;42.30;;;;;;5071213;28;20044;-39
2021/03/19 04:56:19;;;;;;;0.88;0.60;;;23.30;42.30;;;;;;5070436;28;20049;-38
2021/03/19 04:58:47;;;;;;;0.60;0.60;;;23.30;42.30;;;;;;5070225;28;20458;-38
2021/03/19 05:01:14;;;;;;;1.25;0.95;;;23.30;42.30;;;;;;5070758;28;20488;-40
2021/03/19 05:03:42;;;;;;;0.65;0.65;;;23.30;42.30;;;;;;5071624;28;20052;-39
2021/03/19 05:06:10;;;;;;;1.10;1.00;;;23.30;42.30;;;;;;5072573;28;20045;-38
2021/03/19 05:08:37;;;;;;;1.23;0.88;;;23.30;42.30;;;;;;5071379;28;20044;-39
2021/03/19 05:11:04;;;;;;;0.60;0.60;;;23.20;42.20;;;;;;5070818;28;20041;-38
2021/03/19 05:13:30;;;;;;;1.13;1.02;;;23.30;42.30;;;;;;5070684;28;20048;-38
2021/03/19 05:15:57;;;;;;;1.00;0.90;;;23.30;42.30;;;;;;5070954;28;20090;-38
2021/03/19 05:18:24;;;;;;;0.80;0.77;;;23.30;42.30;;;;;;5070788;28;20052;-38
2021/03/19 05:20:51;;;;;;;1.15;0.77;;;23.30;42.30;;;;;;5074119;28;20103;-38
2021/03/19 05:23:31;;;;;;;1.08;0.90;;;23.30;42.30;;;;;;5074594;28;20059;-38
2021/03/19 05:25:58;;;;;;;0.95;0.73;;;23.30;42.30;;;;;;5073169;28;20052;-38
2021/03/19 05:28:26;;;;;;;0.88;0.70;;;23.30;42.30;;;;;;5072931;28;20060;-38
2021/03/19 05:30:53;;;;;;;0.90;0.80;;;23.20;42.20;;;;;;5072154;28;20066;-38
2021/03/19 05:33:23;;;;;;;1.05;0.85;;;23.20;42.20;;;;;;5073245;28;20041;-38
2021/03/19 05:35:50;;;;;;;0.70;0.70;;;23.30;42.30;;;;;;5075700;28;20052;-38
2021/03/19 05:38:17;;;;;;;0.60;0.60;;;23.20;42.20;;;;;;5074338;28;20045;-38
2021/03/19 05:40:50;;;;;;;0.75;0.73;;;23.30;42.30;;;;;;5074568;28;20064;-38
2021/03/19 05:43:25;;;;;;;0.83;0.70;;;23.20;42.20;;;;;;5074381;28;20053;-39
2021/03/19 05:46:02;;;;;;;0.82;0.70;;;23.30;42.30;;;;;;5074261;28;20048;-38
2021/03/19 05:48:41;;;;;;;1.10;0.80;;;23.20;42.20;;;;;;5073067;28;20040;-38
2021/03/19 05:51:37;;;;;;;0.70;0.70;;;23.20;42.20;;;;;;5072081;28;20044;-38
2021/03/19 05:54:22;;;;;;;0.90;0.80;;;23.20;42.20;;;;;;5074113;28;20044;-38
2021/03/19 05:56:55;;;;;;;0.88;0.70;;;23.20;42.20;;;;;;5073381;28;20052;-38
2021/03/19 05:59:22;;;;;;;0.75;0.68;;;23.20;42.20;;;;;;5072776;28;20497;-38
2021/03/19 06:01:49;;;;;;;1.33;0.90;;;23.20;42.20;;;;;;5072747;28;20055;-38
2021/03/19 06:04:21;;;;;;;1.58;0.75;;;23.20;42.20;;;;;;5072758;28;20080;-37
2021/03/19 06:07:03;;;;;;;1.00;0.90;;;23.20;42.20;;;;;;5073840;28;20049;-38
2021/03/19 06:09:37;;;;;;;1.08;0.80;;;23.20;42.20;;;;;;5073336;28;20044;-37
2021/03/19 06:12:19;;;;;;;0.80;0.80;;;23.20;42.20;;;;;;5072493;28;20047;-38
2021/03/19 06:14:55;;;;;;;1.00;0.80;;;23.30;42.30;;;;;;5072173;28;20049;-37
2021/03/19 06:17:43;;;;;;;1.05;0.88;;;23.30;42.20;;;;;;5072431;28;20055;-38
2021/03/19 06:20:14;;;;;;;0.70;0.65;;;23.20;42.20;;;;;;5073065;28;20087;-37
2021/03/19 06:22:48;;;;;;;0.98;0.88;;;23.30;42.20;;;;;;5072125;28;20044;-37
2021/03/19 06:25:17;;;;;;;;;;;23.30;42.20;;;;;;5072530;28;20046;-37
2021/03/19 06:27:52;;;;;;;1.55;0.90;;;23.30;42.20;;;;;;5073014;28;20287;-37
2021/03/19 06:30:34;;;;;;;1.10;0.80;;;23.30;42.20;;;;;;5073433;28;20426;-37
2021/03/19 06:33:07;;;;;;;0.80;0.77;;;23.30;42.20;;;;;;5071281;28;20056;-37
2021/03/19 06:35:36;;;;;;;0.75;0.75;;;23.30;42.20;;;;;;5071978;28;20099;-37
2021/03/19 06:38:33;;;;;;;1.10;0.85;;;23.30;42.20;;;;;;5072044;28;20046;-37
2021/03/19 06:41:27;;;;;;;0.80;0.77;;;23.30;42.20;;;;;;5072884;28;20049;-37
2021/03/19 06:44:15;;;;;;;1.17;0.70;;;23.30;42.20;;;;;;5071984;28;20044;-38
2021/03/19 06:46:50;;;;;;;0.80;0.70;;;23.30;42.20;;;;;;5071608;28;20048;-37
2021/03/19 06:49:19;;;;;;;0.80;0.80;;;23.30;42.10;;;;;;5071605;28;20563;-37
2021/03/19 06:51:49;;;;;;;0.73;0.70;;;23.30;42.10;;;;;;5072824;28;20045;-37
2021/03/19 06:54:44;;;;;;;0.90;0.60;;;23.30;42.10;;;;;;5071831;28;20158;-37
2021/03/19 06:57:13;;;;;;;0.80;0.70;;;23.30;42.20;;;;;;5072620;28;20059;-37
2021/03/19 06:59:51;;;;;;;0.85;0.68;;;23.30;42.10;;;;;;5070989;28;20058;-37
2021/03/19 07:02:20;;;;;;;1.45;0.90;;;23.30;42.10;;;;;;5074014;28;20411;-37
2021/03/19 07:04:53;;;;;;;1.10;0.80;;;23.30;42.10;;;;;;5071325;28;20051;-37
2021/03/19 07:07:57;;;;;;;1.00;0.82;;;23.30;42.10;;;;;;5072559;28;20059;-38
2021/03/19 07:10:32;;;;;;;1.00;0.90;;;23.30;42.10;;;;;;5058088;28;20037;-37
2021/03/19 07:13:23;;;;;;;0.93;0.70;;;23.30;42.10;;;;;;5072603;28;20052;-37
2021/03/19 07:16:03;;;;;;;1.50;1.10;;;23.30;42.10;;;;;;5072605;28;20468;-37
2021/03/19 07:18:30;;;;;;;1.15;0.75;;;23.30;42.10;;;;;;5071317;28;20040;-38
2021/03/19 07:21:26;;;;;;;1.17;0.63;;;23.30;42.10;;;;;;5073665;28;20135;-38
2021/03/19 07:24:12;;;;;;;0.82;0.77;;;23.30;42.10;;;;;;5058330;28;20052;-37
2021/03/19 07:26:46;;;;;;;0.88;0.68;;;23.30;42.10;;;;;;5070882;28;20044;-37
2021/03/19 07:29:41;;;;;;;1.27;1.00;;;23.30;42.10;;;;;;5071856;28;20041;-38
2021/03/19 07:32:24;;;;;;;0.60;0.60;;;23.40;42.20;;;;;;5070520;28;20041;-38
2021/03/19 07:35:09;;;;;;;0.80;0.80;;;23.30;42.10;;;;;;5071852;28;20040;-38
2021/03/19 07:38:15;;;;;;;0.90;0.70;;;23.30;42.00;;;;;;5070747;28;20055;-38
2021/03/19 07:40:41;;;;;;;0.90;0.70;;;23.40;42.10;;;;;;5070962;28;20506;-38
2021/03/19 07:43:34;;;;;;;0.77;0.65;;;23.40;42.10;;;;;;5070739;28;20503;-39
2021/03/19 07:46:33;;;;;;;1.02;0.75;;;23.30;42.00;;;;;;5049533;28;20119;-38
2021/03/19 07:49:08;;;;;;;0.90;0.73;;;23.30;42.00;;;;;;5050716;28;20067;-38
2021/03/19 07:52:00;;;;;;;1.17;0.70;;;23.30;42.00;;;;;;5050498;28;20045;-38
2021/03/19 07:54:44;;;;;;;0.95;0.68;;;23.30;42.00;;;;;;5050725;28;20137;-38
2021/03/19 07:57:28;;;;;;;0.83;0.60;;;23.30;42.00;;;;;;5050570;28;20064;-38
2021/03/19 08:00:06;;;;;;;0.80;0.70;;;23.30;42.60;;;;;;5050431;28;20059;-38
2021/03/19 08:02:57;;;;;;;0.80;0.80;;;23.30;42.00;;;;;;5048567;28;20052;-38
2021/03/19 08:05:46;;;;;;;1.40;0.95;;;23.30;42.00;;;;;;5034145;28;20102;-38
2021/03/19 08:08:39;;;;;;;0.80;0.63;;;23.40;42.00;;;;;;5049176;28;20053;-38
2021/03/19 08:11:11;;;;;;;0.95;0.70;;;23.30;42.00;;;;;;5049198;28;20067;-38
2021/03/19 08:14:16;;;;;;;1.23;0.70;;;23.30;42.00;;;;;;5048959;28;20542;-38
2021/03/19 08:16:54;;;;;;;1.50;0.82;;;23.40;42.00;;;;;;5048877;28;20049;-39
2021/03/19 08:19:21;;;;;;;1.05;0.80;;;23.40;42.00;;;;;;5050342;28;20413;-38
2021/03/19 08:22:16;;;;;;;1.23;0.80;;;23.40;42.10;;;;;;5051851;28;20048;-38
2021/03/19 08:24:53;;;;;;;1.00;0.90;;;23.40;42.00;;;;;;5069984;28;20488;-38
2021/03/19 08:27:26;;;;;;;0.90;0.70;;;23.40;42.00;;;;;;5071130;28;20053;-38
2021/03/19 08:30:32;;;;;;;1.05;0.63;;;23.40;42.00;;;;;;5070028;28;20047;-38
2021/03/19 08:33:04;;;;;;;0.98;0.80;;;23.40;42.00;;;;;;5014712;28;20042;-38
2021/03/19 08:36:00;;;;;;;1.08;0.70;;;23.40;42.00;;;;;;5013813;28;20197;-38
2021/03/19 08:38:43;;;;;;;1.20;0.70;;;23.40;42.00;;;;;;5013953;28;20054;-38
2021/03/19 08:41:29;;;;;;;0.95;0.73;;;23.40;42.00;;;;;;5013654;28;20212;-38
2021/03/19 08:44:00;;;;;;;1.10;0.82;;;23.40;41.90;;;;;;5015147;28;20065;-40
2021/03/19 08:46:42;;;;;;;1.17;0.80;;;23.40;42.00;;;;;;5026069;28;20057;-39
2021/03/19 08:49:38;;;;;;;0.98;0.80;;;23.50;42.00;;;;;;5013956;28;20076;-38
2021/03/19 08:52:33;;;;;;;0.82;0.65;;;23.40;41.90;;;;;;5012804;28;20046;-38
2021/03/19 08:55:13;;;;;;;1.05;0.80;;;23.50;42.00;;;;;;5011322;28;20077;-38
2021/03/19 08:57:49;;;;;;;0.63;0.60;;;23.50;42.00;;;;;;5016253;28;20112;-38
2021/03/19 09:00:21;;;;;;;1.05;0.80;;;23.50;42.00;;;;;;5016558;28;20485;-38
2021/03/19 09:02:53;;;;;;;1.10;0.80;;;23.50;42.00;;;;;;5021965;28;20118;-38
2021/03/19 09:05:30;;;;;;;0.88;0.80;;;23.50;42.00;;;;;;5074709;28;20091;-38
2021/03/19 09:08:18;;;;;;;0.73;0.63;;;23.50;42.00;;;;;;5074936;28;20049;-39
2021/03/19 09:10:44;;;;;;;1.08;0.80;;;23.50;42.00;;;;;;5074664;28;20044;-39
2021/03/19 09:13:15;;;;;;;0.82;0.70;;;23.50;42.00;;;;;;5073469;28;20044;-39
2021/03/19 09:15:54;;;;;;;0.93;0.68;;;23.50;41.90;;;;;;5073306;28;20048;-39
2021/03/19 09:18:48;;;;;;;1.13;0.80;;;23.50;42.00;;;;;;5074605;28;20061;-38
2021/03/19 09:21:30;;;;;;;0.90;0.70;;;23.50;41.90;;;;;;5074446;28;20052;-38
2021/03/19 09:24:05;;;;;;;0.90;0.80;;;23.50;41.90;;;;;;5074496;28;20056;-38
2021/03/19 09:26:43;;;;;;;0.90;0.80;;;23.50;41.90;;;;;;5074377;28;20438;-38
2021/03/19 09:29:13;;;;;;;1.40;0.90;;;23.50;41.90;;;;;;5074245;28;20051;-38
2021/03/19 09:31:55;;;;;;;0.82;0.73;;;23.50;41.90;;;;;;5072979;28;20040;-38
2021/03/19 09:34:31;;;;;;;0.70;0.68;;;23.50;41.90;;;;;;5073128;28;20047;-38
2021/03/19 09:37:04;;;;;;;0.82;0.77;;;23.50;41.90;;;;;;5073365;28;20079;-38
2021/03/19 09:39:44;;;;;;;;;;;23.50;41.90;;;;;;5073670;28;20044;-38
2021/03/19 09:42:20;;;;;;;1.00;0.70;;;23.50;41.90;;;;;;5073137;28;19928;-38
2021/03/19 09:44:59;;;;;;;0.70;0.70;;;23.50;41.90;;;;;;5075302;28;20051;-39
2021/03/19 09:47:35;;;;;;;0.77;0.70;;;23.50;41.90;;;;;;5073737;28;20041;-38
2021/03/19 09:50:25;;;;;;;0.70;0.60;;;23.50;41.90;;;;;;5075387;28;20412;-38
2021/03/19 09:52:59;;;;;;;0.73;0.63;;;23.50;41.90;;;;;;5073047;28;20037;-38
2021/03/19 09:55:37;;;;;;;0.90;0.75;;;23.50;41.90;;;;;;5075120;28;20044;-39
2021/03/19 09:58:22;;;;;;;1.00;0.80;;;23.50;41.90;;;;;;5073825;28;20059;-39
2021/03/19 10:00:54;;;;;;;1.20;0.95;;;23.50;41.90;;;;;;5073755;28;20048;-38
2021/03/19 10:03:22;;;;;;;1.38;0.70;;;23.50;41.90;;;;;;5073806;28;20483;-38
2021/03/19 10:05:49;;;;;;;0.90;0.80;;;23.50;41.90;;;;;;5074622;28;20044;-38
2021/03/19 10:08:28;;;;;;;0.82;0.75;;;23.50;41.90;;;;;;5072742;28;20045;-38
2021/03/19 10:11:06;;;;;;;0.93;0.70;;;23.50;41.90;;;;;;5073549;28;20098;-38
2021/03/19 10:13:34;;;;;;;0.80;0.70;;;23.50;41.90;;;;;;5073185;28;20048;-38
2021/03/19 10:16:03;;;;;;;1.10;0.80;;;23.50;41.90;;;;;;5073144;28;20075;-38
2021/03/19 10:18:46;;;;;;;;;;;23.50;41.90;;;;;;5073717;28;20048;-38
2021/03/19 10:21:15;;;;;;;1.05;0.82;;;23.50;41.90;;;;;;5072864;28;20279;-38
2021/03/19 10:23:53;;;;;;;1.00;0.70;;;23.50;41.90;;;;;;5073760;28;20393;-39
2021/03/19 10:26:27;;;;;;;1.10;0.90;;;23.50;41.90;;;;;;5074746;28;20397;-38
2021/03/19 10:29:20;;;;;;;0.82;0.70;;;23.50;41.90;;;;;;5073066;28;20356;-38
2021/03/19 10:31:57;;;;;;;1.05;0.80;;;23.50;41.90;;;;;;5071567;28;20051;-38
2021/03/19 10:34:36;;;;;;;1.10;0.80;;;23.50;41.90;;;;;;5072992;28;20045;-39
2021/03/19 10:37:27;;;;;;;0.60;0.50;;;23.50;41.90;;;;;;5073724;28;20389;-38
2021/03/19 10:40:26;;;;;;;0.82;0.65;;;23.50;42.00;;;;;;5072069;28;20048;-38
2021/03/19 10:43:18;;;;;;;0.55;0.45;;;23.50;41.90;;;;;;5072238;28;20055;-39
2021/03/19 10:45:47;;;;;;;0.70;0.70;;;23.50;41.90;;;;;;5072996;28;20048;-39
2021/03/19 10:48:25;;;;;;;0.70;0.60;;;23.50;41.90;;;;;;5073178;28;20128;-39
2021/03/19 10:50:58;;;;;;;0.80;0.70;;;23.60;42.00;;;;;;5071980;28;20068;-39
2021/03/19 10:53:37;;;;;;;1.10;0.95;;;23.50;41.90;;;;;;5072055;28;20048;-38
2021/03/19 10:56:05;;;;;;;1.02;0.80;;;23.50;41.90;;;;;;5073167;28;20052;-38
2021/03/19 10:58:42;;;;;;;1.00;0.70;;;23.50;41.80;;;;;;5072876;28;20102;-39
2021/03/19 11:01:31;;;;;;;1.38;0.80;;;23.60;41.90;;;;;;5071591;28;20048;-39
2021/03/19 11:04:25;;;;;;;0.80;0.68;;;23.50;41.80;;;;;;5072466;28;20136;-39
2021/03/19 11:06:53;;;;;;;0.90;0.73;;;23.50;41.90;;;;;;5072493;28;20049;-39
2021/03/19 11:09:24;;;;;;;0.88;0.65;;;23.50;41.80;;;;;;5071164;28;20044;-39
2021/03/19 11:11:55;;;;;;;1.08;0.73;;;23.50;41.90;;;;;;5072222;28;20511;-39
2021/03/19 11:14:28;;;;;;;1.10;0.80;;;23.60;42.00;;;;;;5070949;28;20488;-39
2021/03/19 11:17:16;;;;;;;1.08;0.80;;;23.60;41.90;;;;;;5072701;28;20041;-39
2021/03/19 11:20:05;;;;;;;1.13;0.77;;;23.60;41.90;;;;;;5071615;28;20047;-38
2021/03/19 11:22:43;;;;;;;0.93;0.73;;;23.60;41.90;;;;;;5073493;28;20045;-37
2021/03/19 11:25:17;;;;;;;0.80;0.73;;;23.60;41.90;;;;;;5073757;28;20055;-38
2021/03/19 11:27:44;;;;;;;0.90;0.70;;;23.60;41.90;;;;;;5070678;28;20058;-37
2021/03/19 11:30:21;;;;;;;0.98;0.77;;;23.60;41.90;;;;;;5073192;28;20290;-37
2021/03/19 11:33:04;;;;;;;0.60;0.60;;;23.60;41.90;;;;;;5071076;28;20049;-37
2021/03/19 11:35:33;;;;;;;0.88;0.70;;;23.60;41.90;;;;;;5071783;28;20123;-38
2021/03/19 11:38:00;;;;;;;0.93;0.77;;;23.60;41.90;;;;;;5073225;28;20056;-37
2021/03/19 11:40:38;;;;;;;0.70;0.70;;;23.60;41.90;;;;;;5072005;28;20075;-38
2021/03/19 11:43:10;;;;;;;1.00;0.80;;;23.60;41.90;;;;;;5071122;28;20044;-37
2021/03/19 11:45:40;;;;;;;0.80;0.65;;;23.60;41.90;;;;;;5073224;28;20420;-37
2021/03/19 11:48:28;;;;;;;1.17;0.70;;;23.60;41.80;;;;;;5054568;28;20044;-37
2021/03/19 11:51:07;;;;;;;0.90;0.80;;;23.60;41.80;;;;;;5054678;28;20102;-37
2021/03/19 11:53:35;;;;;;;0.85;0.70;;;23.60;41.80;;;;;;5104204;28;20049;-38
2021/03/19 11:56:07;;;;;;;0.70;0.60;;;23.70;41.90;;;;;;5072357;28;20154;-37
2021/03/19 11:58:35;;;;;;;0.80;0.80;;;23.70;42.00;;;;;;5071890;28;20064;-37
2021/03/19 12:01:04;;;;;;;1.23;1.00;;;23.70;41.90;;;;;;5069424;28;20062;-37
2021/03/19 12:03:42;;;;;;;1.08;0.60;;;23.60;42.40;;;;;;5071408;28;20476;-37
2021/03/19 12:06:12;;;;;;;0.90;0.80;;;23.60;41.80;;;;;;5072827;28;20049;-37
2021/03/19 12:08:40;;;;;;;1.27;0.90;;;23.60;41.80;;;;;;5070344;28;20045;-37
2021/03/19 12:11:11;;;;;;;1.15;0.68;;;23.70;41.90;;;;;;5071144;28;20044;-37
2021/03/19 12:13:38;;;;;;;0.60;0.50;;;23.70;41.90;;;;;;5070358;28;20098;-37
2021/03/19 12:16:05;;;;;;;0.80;0.80;;;23.60;41.80;;;;;;5070301;28;20047;-38
2021/03/19 12:18:32;;;;;;;1.10;0.80;;;23.70;41.90;;;;;;5070394;28;20055;-38
2021/03/19 12:20:59;;;;;;;1.23;0.80;;;23.60;41.80;;;;;;5070636;28;20071;-38
2021/03/19 12:23:27;;;;;;;1.00;0.80;;;23.70;41.90;;;;;;5071508;28;20041;-37
2021/03/19 12:25:55;;;;;;;0.98;0.73;;;23.60;41.90;;;;;;5053003;28;20111;-38
2021/03/19 12:28:22;;;;;;;0.93;0.68;;;23.70;42.00;;;;;;5071456;28;20048;-38
2021/03/19 12:30:52;;;;;;;0.70;0.70;;;23.60;41.90;;;;;;5072628;28;20081;-37
2021/03/19 12:33:20;;;;;;;0.85;0.70;;;23.60;41.90;;;;;;5075355;28;20044;-38
2021/03/19 12:35:49;;;;;;;0.75;0.65;;;23.60;41.90;;;;;;5074359;28;20048;-37
2021/03/19 12:38:16;;;;;;;0.80;0.70;;;23.60;41.90;;;;;;5074366;28;20049;-37
2021/03/19 12:40:43;;;;;;;0.82;0.70;;;23.60;41.90;;;;;;5076381;28;20114;-37
2021/03/19 12:43:12;;;;;;;0.85;0.65;;;23.60;41.90;;;;;;5075199;28;20048;-38
2021/03/19 12:45:39;;;;;;;0.63;0.60;;;23.60;41.90;;;;;;5076015;28;20458;-39
2021/03/19 12:48:06;;;;;;;1.02;0.85;;;23.60;41.90;;;;;;5074205;28;20051;-37
2021/03/19 12:50:34;;;;;;;1.27;0.98;;;23.60;41.90;;;;;;5075190;28;20045;-37
2021/03/19 12:53:03;;;;;;;0.75;0.70;;;23.60;41.90;;;;;;5073773;28;20108;-37
2021/03/19 12:55:34;;;;;;;0.60;0.60;;;23.60;41.90;;;;;;5073654;28;20044;-38
2021/03/19 12:58:02;;;;;;;0.68;0.60;;;23.60;41.90;;;;;;5074654;28;20376;-37
2021/03/19 13:00:35;;;;;;;1.05;0.75;;;23.60;41.90;;;;;;5074946;28;20102;-38
2021/03/19 13:03:05;;;;;;;0.70;0.60;;;23.60;41.90;;;;;;5073697;28;20553;-38
2021/03/19 13:05:34;;;;;;;1.08;0.70;;;23.60;41.90;;;;;;5074805;28;20055;-38
2021/03/19 13:08:02;;;;;;;0.85;0.75;;;23.70;42.00;;;;;;5073284;28;20541;-37
2021/03/19 13:10:32;;;;;;;0.70;0.68;;;23.60;42.50;;;;;;5074542;28;20047;-39
2021/03/19 13:12:59;;;;;;;0.85;0.80;;;23.60;41.90;;;;;;5073625;28;20389;-37
2021/03/19 13:15:28;;;;;;;1.00;0.68;;;23.60;41.90;;;;;;5074699;28;20051;-38
2021/03/19 13:17:56;;;;;;;0.70;0.60;;;23.60;42.50;;;;;;5075235;28;20053;-38
2021/03/19 13:20:25;;;;;;;1.02;0.80;;;23.60;41.90;;;;;;5075913;28;20102;-38
2021/03/19 13:22:51;;;;;;;0.70;0.70;;;23.60;41.90;;;;;;5073851;28;20049;-38
2021/03/19 13:25:27;;;;;;;1.60;1.05;;;23.60;41.90;;;;;;5057191;28;20131;-38
2021/03/19 13:27:55;;;;;;;0.75;0.70;;;23.60;41.90;;;;;;5073344;28;20516;-36
2021/03/19 13:30:35;;;;;;;1.00;0.80;;;23.60;41.90;;;;;;5071517;28;20052;-38